createdAt,value
2018-03-22T00:00:17.337Z,12.20
2018-03-22T00:02:45.341Z,11.80
2018-03-22T00:05:13.532Z,13.17
2018-03-22T00:07:41.572Z,12.70
2018-03-22T00:10:09.593Z,13.00
2018-03-22T00:12:37.733Z,12.43
2018-03-22T00:15:05.702Z,14.50
2018-03-22T00:17:33.728Z,15.73
2018-03-22T00:20:01.706Z,14.70
2018-03-22T00:22:38.571Z,15.83
2018-03-22T00:25:07.560Z,17.60
2018-03-22T00:27:35.522Z,17.77
2018-03-22T00:30:03.427Z,16.73
2018-03-22T00:32:31.365Z,16.77
2018-03-22T00:34:59.329Z,17.07
2018-03-22T00:37:27.273Z,17.37
2018-03-22T00:39:55.230Z,16.47
2018-03-22T00:42:23.337Z,16.30
2018-03-22T00:44:51.723Z,17.10
2018-03-22T00:47:19.651Z,17.30
2018-03-22T00:49:47.611Z,14.80
2018-03-22T00:52:15.570Z,15.87
2018-03-22T00:54:43.565Z,16.70
2018-03-22T00:57:11.545Z,15.80
2018-03-22T00:59:39.544Z,16.00
2018-03-22T01:02:07.495Z,16.03
2018-03-22T01:04:35.474Z,16.13
2018-03-22T01:07:03.444Z,15.50
2018-03-22T01:09:31.421Z,16.20
2018-03-22T01:11:59.347Z,17.23
2018-03-22T01:14:27.388Z,14.37
2018-03-22T01:16:55.339Z,14.03
2018-03-22T01:19:23.329Z,15.17
2018-03-22T01:21:51.266Z,17.83
2018-03-22T01:24:19.198Z,17.00
2018-03-22T01:26:47.176Z,16.57
2018-03-22T01:29:15.102Z,16.13
2018-03-22T01:31:43.069Z,18.40
2018-03-22T01:34:11.017Z,15.63
2018-03-22T01:36:38.972Z,18.20
2018-03-22T01:39:06.898Z,17.17
2018-03-22T01:41:34.829Z,19.13
2018-03-22T01:44:02.959Z,17.17
2018-03-22T01:46:30.908Z,17.77
2018-03-22T01:48:58.874Z,18.37
2018-03-22T01:51:26.808Z,17.60
2018-03-22T01:53:54.778Z,15.87
2018-03-22T01:56:22.747Z,17.90
2018-03-22T01:58:50.634Z,16.13
2018-03-22T02:01:18.578Z,17.50
2018-03-22T02:03:46.482Z,17.23
2018-03-22T02:06:14.422Z,18.43
2018-03-22T02:08:42.361Z,16.23
2018-03-22T02:11:10.312Z,16.10
2018-03-22T02:13:38.248Z,17.03
2018-03-22T02:16:06.202Z,16.43
2018-03-22T02:18:34.130Z,15.27
2018-03-22T02:21:02.051Z,15.57
2018-03-22T02:23:29.972Z,15.70
2018-03-22T02:25:57.901Z,16.40
2018-03-22T02:28:25.827Z,14.77
2018-03-22T02:30:53.769Z,16.60
2018-03-22T02:33:21.719Z,15.63
2018-03-22T02:35:49.659Z,15.53
2018-03-22T02:38:17.583Z,15.83
2018-03-22T02:40:45.526Z,15.87
2018-03-22T02:43:13.564Z,15.47
2018-03-22T02:45:41.515Z,16.37
2018-03-22T02:48:09.431Z,15.50
2018-03-22T02:50:37.412Z,15.80
2018-03-22T02:53:05.370Z,16.50
2018-03-22T02:55:33.341Z,15.37
2018-03-22T02:58:01.288Z,14.70
2018-03-22T03:00:29.344Z,15.83
2018-03-22T03:02:57.198Z,16.87
2018-03-22T03:05:25.182Z,14.93
2018-03-22T03:07:53.158Z,17.27
2018-03-22T03:10:21.083Z,16.33
2018-03-22T03:12:49.060Z,17.60
2018-03-22T03:15:16.999Z,17.07
2018-03-22T03:17:44.982Z,16.67
2018-03-22T03:20:12.945Z,17.70
2018-03-22T03:22:40.898Z,17.83
2018-03-22T03:25:09.598Z,17.13
2018-03-22T03:27:37.560Z,18.73
2018-03-22T03:30:05.510Z,17.60
2018-03-22T03:32:33.501Z,17.50
2018-03-22T03:35:01.467Z,15.97
2018-03-22T03:37:29.348Z,17.97
2018-03-22T03:39:57.277Z,19.57
2018-03-22T03:42:25.200Z,19.87
2018-03-22T03:44:53.322Z,20.07
2018-03-22T03:47:21.243Z,22.00
2018-03-22T03:49:49.152Z,21.70
2018-03-22T03:52:17.081Z,21.20
2018-03-22T03:54:45.034Z,22.55
2018-03-22T03:57:12.966Z,21.40
2018-03-22T03:59:40.864Z,22.40
2018-03-22T04:02:08.822Z,20.47
2018-03-22T04:04:36.748Z,22.90
2018-03-22T04:07:04.716Z,19.77
2018-03-22T04:09:32.641Z,19.90
2018-03-22T04:12:00.585Z,19.77
2018-03-22T04:14:28.505Z,20.23
2018-03-22T04:16:56.522Z,20.57
2018-03-22T04:19:24.462Z,21.67
2018-03-22T04:21:52.377Z,22.37
2018-03-22T04:24:20.325Z,22.70
2018-03-22T04:26:48.329Z,21.00
2018-03-22T04:29:16.211Z,21.73
2018-03-22T04:31:44.141Z,22.37
2018-03-22T04:34:12.074Z,23.67
2018-03-22T04:36:39.992Z,21.70
2018-03-22T04:39:07.942Z,24.80
2018-03-22T04:41:35.921Z,22.60
2018-03-22T04:44:03.856Z,23.67
2018-03-22T04:46:31.855Z,25.10
2018-03-22T04:48:59.825Z,23.60
2018-03-22T04:51:27.811Z,25.90
2018-03-22T04:53:55.782Z,27.00
2018-03-22T04:56:23.732Z,25.20
2018-03-22T04:58:51.702Z,27.60
2018-03-22T05:01:19.650Z,24.33
2018-03-22T05:03:47.609Z,26.77
2018-03-22T05:06:15.534Z,27.15
2018-03-22T05:08:43.479Z,26.23
2018-03-22T05:11:11.414Z,27.17
2018-03-22T05:13:39.734Z,25.92
2018-03-22T05:16:07.859Z,29.07
2018-03-22T05:18:35.818Z,28.07
2018-03-22T05:21:03.689Z,27.03
2018-03-22T05:23:31.668Z,29.37
2018-03-22T05:25:59.641Z,29.40
2018-03-22T05:28:27.579Z,29.93
2018-03-22T05:30:55.516Z,31.40
2018-03-22T05:33:23.465Z,28.90
2018-03-22T05:35:51.487Z,32.43
2018-03-22T05:38:19.410Z,29.20
2018-03-22T05:40:47.393Z,30.80
2018-03-22T05:43:15.334Z,29.80
2018-03-22T05:45:43.266Z,29.20
2018-03-22T05:48:11.217Z,28.67
2018-03-22T05:50:39.177Z,30.73
2018-03-22T05:53:07.167Z,32.60
2018-03-22T05:55:35.105Z,29.33
2018-03-22T05:58:03.084Z,28.20
2018-03-22T06:00:31.119Z,28.00
2018-03-22T06:02:59.048Z,28.30
2018-03-22T06:05:26.990Z,29.10
2018-03-22T06:07:54.964Z,28.53
2018-03-22T06:10:22.894Z,28.57
2018-03-22T06:12:50.830Z,31.30
2018-03-22T06:15:18.769Z,28.40
2018-03-22T06:17:46.747Z,26.47
2018-03-22T06:20:14.731Z,26.97
2018-03-22T06:22:42.756Z,27.00
2018-03-22T06:25:10.703Z,29.00
2018-03-22T06:27:38.714Z,27.80
2018-03-22T06:30:06.773Z,26.93
2018-03-22T06:32:34.738Z,29.43
2018-03-22T06:35:02.693Z,28.50
2018-03-22T06:37:30.608Z,28.27
2018-03-22T06:39:58.549Z,29.25
2018-03-22T06:42:26.497Z,26.97
2018-03-22T06:44:54.441Z,28.13
2018-03-22T06:47:22.359Z,26.27
2018-03-22T06:49:50.314Z,25.30
2018-03-22T06:52:18.246Z,26.03
2018-03-22T06:54:46.183Z,25.20
2018-03-22T06:57:14.125Z,25.10
2018-03-22T06:59:42.134Z,25.20
2018-03-22T07:02:10.068Z,24.60
2018-03-22T07:04:38.014Z,22.60
2018-03-22T07:07:05.980Z,22.70
2018-03-22T07:09:33.901Z,24.83
2018-03-22T07:12:01.848Z,24.83
2018-03-22T07:14:29.763Z,21.90
2018-03-22T07:16:57.787Z,25.13
2018-03-22T07:19:25.754Z,23.90
2018-03-22T07:21:53.701Z,23.50
2018-03-22T07:24:21.640Z,25.17
2018-03-22T07:26:49.584Z,23.50
2018-03-22T07:29:17.505Z,25.10
2018-03-22T07:31:45.453Z,23.10
2018-03-22T07:34:13.411Z,24.53
2018-03-22T07:36:41.369Z,24.00
2018-03-22T07:39:09.340Z,26.00
2018-03-22T07:41:37.310Z,25.25
2018-03-22T07:44:10.787Z,22.70
2018-03-22T07:46:38.747Z,23.53
2018-03-22T07:49:06.751Z,23.57
2018-03-22T07:51:34.685Z,24.10
2018-03-22T07:54:02.653Z,26.03
2018-03-22T07:56:30.875Z,24.43
2018-03-22T07:58:58.944Z,27.07
2018-03-22T08:01:27.519Z,26.07
2018-03-22T08:03:56.614Z,26.87
2018-03-22T08:06:25.642Z,25.67
2018-03-22T08:08:53.614Z,27.17
2018-03-22T08:11:21.703Z,25.73
2018-03-22T08:13:49.687Z,26.10
2018-03-22T08:16:17.618Z,27.77
2018-03-22T08:18:45.666Z,27.63
2018-03-22T08:21:13.611Z,29.20
2018-03-22T08:23:42.536Z,29.47
2018-03-22T08:26:10.519Z,29.37
2018-03-22T08:28:38.587Z,29.33
2018-03-22T08:31:07.223Z,30.20
2018-03-22T08:33:35.180Z,27.83
2018-03-22T08:36:03.191Z,30.63
2018-03-22T08:38:31.933Z,30.07
2018-03-22T08:40:59.923Z,31.43
2018-03-22T08:43:27.883Z,33.50
2018-03-22T08:45:55.841Z,31.20
2018-03-22T08:48:23.757Z,29.50
2018-03-22T08:50:52.652Z,30.37
2018-03-22T08:53:21.053Z,30.83
2018-03-22T08:55:49.021Z,32.50
2018-03-22T08:58:16.992Z,31.23
2018-03-22T09:00:44.922Z,31.90
2018-03-22T09:03:12.905Z,28.47
2018-03-22T09:05:40.852Z,29.50
2018-03-22T09:08:08.816Z,29.47
2018-03-22T09:10:36.752Z,30.30
2018-03-22T09:13:04.778Z,28.50
2018-03-22T09:15:32.783Z,31.77
2018-03-22T09:18:00.923Z,29.83
2018-03-22T09:20:28.956Z,28.60
2018-03-22T09:22:57.387Z,30.73
2018-03-22T09:25:25.447Z,29.17
2018-03-22T09:27:53.426Z,29.37
2018-03-22T09:30:21.349Z,26.87
2018-03-22T09:32:49.277Z,28.83
2018-03-22T09:35:17.590Z,25.57
2018-03-22T09:37:45.576Z,25.90
2018-03-22T09:40:13.590Z,24.63
2018-03-22T09:42:41.596Z,24.90
2018-03-22T09:45:09.565Z,24.70
2018-03-22T09:47:37.536Z,24.03
2018-03-22T09:50:05.474Z,21.80
2018-03-22T09:52:33.413Z,22.23
2018-03-22T09:55:01.451Z,20.67
2018-03-22T09:57:29.529Z,21.20
2018-03-22T09:59:57.450Z,19.90
2018-03-22T10:02:25.533Z,19.97
2018-03-22T10:04:53.465Z,19.30
2018-03-22T10:07:21.406Z,18.63
2018-03-22T10:09:49.400Z,16.63
2018-03-22T10:12:17.378Z,15.30
2018-03-22T10:14:45.543Z,14.83
2018-03-22T10:17:13.512Z,15.43
2018-03-22T10:19:41.461Z,14.67
2018-03-22T10:22:09.581Z,16.27
2018-03-22T10:24:37.673Z,14.40
2018-03-22T10:27:05.624Z,14.30
2018-03-22T10:29:33.668Z,14.70
2018-03-22T10:32:01.681Z,14.50
2018-03-22T10:34:29.677Z,12.57
2018-03-22T10:36:57.627Z,13.10
2018-03-22T10:39:25.576Z,12.30
2018-03-22T10:41:53.518Z,13.00
2018-03-22T10:44:21.455Z,10.93
2018-03-22T10:46:49.455Z,11.40
2018-03-22T10:49:17.405Z,11.10
2018-03-22T10:51:45.333Z,10.47
2018-03-22T10:54:13.333Z,9.80
2018-03-22T10:56:41.317Z,10.07
2018-03-22T10:59:09.285Z,9.70
2018-03-22T11:04:40.134Z,8.57
2018-03-22T11:07:08.085Z,8.50
2018-03-22T11:09:36.019Z,8.77
2018-03-22T11:12:04.037Z,9.67
2018-03-22T11:14:32.055Z,9.10
2018-03-22T11:17:00.042Z,8.87
2018-03-22T11:19:28.010Z,8.73
2018-03-22T11:21:56.036Z,9.10
2018-03-22T11:24:23.972Z,8.67
2018-03-22T11:26:51.945Z,8.50
2018-03-22T11:29:19.896Z,8.23
2018-03-22T11:31:48.084Z,9.57
2018-03-22T11:34:16.712Z,7.23
2018-03-22T11:36:44.676Z,7.70
2018-03-22T11:39:12.653Z,7.13
2018-03-22T11:41:41.237Z,7.67
2018-03-22T11:44:09.172Z,7.37
2018-03-22T11:46:37.257Z,7.80
2018-03-22T11:49:05.990Z,6.87
2018-03-22T11:51:34.352Z,7.33
2018-03-22T11:54:02.254Z,7.47
2018-03-22T11:56:30.279Z,6.73
2018-03-22T11:58:58.223Z,8.33
2018-03-22T12:01:26.135Z,8.03
2018-03-22T12:03:54.301Z,8.13
2018-03-22T12:06:22.268Z,8.63
2018-03-22T12:08:50.210Z,8.60
2018-03-22T12:11:18.388Z,9.10
2018-03-22T12:13:46.345Z,9.37
2018-03-22T12:16:14.452Z,9.90
2018-03-22T12:18:42.538Z,9.33
2018-03-22T12:21:10.676Z,10.07
2018-03-22T12:23:38.644Z,9.17
2018-03-22T12:26:06.588Z,10.73
2018-03-22T12:28:34.543Z,9.57
2018-03-22T12:31:03.128Z,11.40
2018-03-22T12:33:31.462Z,10.50
2018-03-22T12:35:59.672Z,9.90
2018-03-22T12:38:27.657Z,10.73
2018-03-22T12:40:55.598Z,12.60
2018-03-22T12:43:23.662Z,10.67
2018-03-22T12:45:51.516Z,12.83
2018-03-22T12:48:19.459Z,11.97
2018-03-22T12:50:47.474Z,10.90
2018-03-22T12:53:15.490Z,11.57
2018-03-22T12:55:43.470Z,12.07
2018-03-22T12:58:11.427Z,12.47
2018-03-22T13:00:39.380Z,11.73
2018-03-22T13:03:07.341Z,11.87
2018-03-22T13:05:35.329Z,12.60
2018-03-22T13:08:03.282Z,13.63
2018-03-22T13:10:31.249Z,13.90
2018-03-22T13:12:59.216Z,11.73
2018-03-22T13:15:27.107Z,12.33
2018-03-22T13:17:55.081Z,12.40
2018-03-22T13:20:23.029Z,13.87
2018-03-22T13:22:51.100Z,13.90
2018-03-22T13:25:19.047Z,13.10
2018-03-22T13:27:47.009Z,12.57
2018-03-22T13:30:15.013Z,12.60
2018-03-22T13:32:43.157Z,13.77
2018-03-22T13:35:11.393Z,11.03
2018-03-22T13:37:39.340Z,13.33
2018-03-22T13:40:07.525Z,12.10
2018-03-22T13:42:35.553Z,14.43
2018-03-22T13:45:03.599Z,13.87
2018-03-22T13:47:31.544Z,15.30
2018-03-22T13:49:59.560Z,13.50
2018-03-22T13:52:27.539Z,14.50
2018-03-22T13:54:55.510Z,13.90
2018-03-22T13:57:23.396Z,13.30
2018-03-22T13:59:51.584Z,11.17
2018-03-22T14:02:19.489Z,9.60
2018-03-22T14:04:47.433Z,9.80
2018-03-22T14:07:15.425Z,11.17
2018-03-22T14:09:43.322Z,10.60
2018-03-22T14:12:11.383Z,9.53
2018-03-22T14:14:39.331Z,10.33
2018-03-22T14:17:07.609Z,9.77
2018-03-22T14:19:35.632Z,10.23
2018-03-22T14:22:03.550Z,8.17
2018-03-22T14:24:31.488Z,8.67
2018-03-22T14:26:59.445Z,8.60
2018-03-22T14:29:27.382Z,7.30
2018-03-22T14:31:55.364Z,7.73
2018-03-22T14:34:23.558Z,8.57
2018-03-22T14:36:51.552Z,31.07
2018-03-22T14:39:19.518Z,11.80
2018-03-22T14:41:47.478Z,28.13
2018-03-22T14:44:15.392Z,32.10
2018-03-22T14:46:43.379Z,40.27
2018-03-22T14:49:11.310Z,26.53
2018-03-22T14:51:39.337Z,19.63
2018-03-22T14:54:07.283Z,6.90
2018-03-22T14:56:35.828Z,8.07
2018-03-22T14:59:03.730Z,8.17
2018-03-22T15:01:31.723Z,6.90
2018-03-22T15:03:59.633Z,8.33
2018-03-22T15:06:27.608Z,7.40
2018-03-22T15:08:55.526Z,7.93
2018-03-22T15:11:23.478Z,10.20
2018-03-22T15:13:51.410Z,8.77
2018-03-22T15:16:19.891Z,11.90
2018-03-22T15:18:47.811Z,14.77
2018-03-22T15:21:15.721Z,59.03
2018-03-22T15:23:43.666Z,52.60
2018-03-22T15:26:11.624Z,20.90
2018-03-22T15:28:39.535Z,18.50
2018-03-22T15:31:07.606Z,33.50
2018-03-22T15:33:35.541Z,15.90
2018-03-22T15:36:03.518Z,37.00
2018-03-22T15:38:31.455Z,44.27
2018-03-22T15:40:59.566Z,35.47
2018-03-22T15:43:27.764Z,19.93
2018-03-22T15:45:55.666Z,31.50
2018-03-22T15:48:23.621Z,17.77
2018-03-22T15:50:52.397Z,26.80
2018-03-22T15:53:20.323Z,15.13
2018-03-22T15:55:48.265Z,19.33
2018-03-22T15:58:16.228Z,27.57
2018-03-22T16:00:44.140Z,27.70
2018-03-22T16:03:12.099Z,31.90
2018-03-22T16:05:40.046Z,52.50
2018-03-22T16:08:07.974Z,50.13
2018-03-22T16:10:35.884Z,23.30
2018-03-22T16:13:03.832Z,43.83
2018-03-22T16:15:31.779Z,21.03
2018-03-22T16:17:59.723Z,24.37
2018-03-22T16:20:27.673Z,41.33
2018-03-22T16:22:55.585Z,21.90
2018-03-22T16:25:23.512Z,21.67
2018-03-22T16:27:51.459Z,12.07
2018-03-22T16:30:19.391Z,13.70
2018-03-22T16:32:47.433Z,11.10
2018-03-22T16:35:15.370Z,12.87
2018-03-22T16:37:43.403Z,11.93
2018-03-22T16:40:11.310Z,11.97
2018-03-22T16:42:39.308Z,55.30
2018-03-22T16:45:07.282Z,47.77
2018-03-22T16:47:35.313Z,33.10
2018-03-22T16:50:03.252Z,26.33
2018-03-22T16:52:31.191Z,36.77
2018-03-22T16:54:59.158Z,59.10
2018-03-22T16:57:27.081Z,23.23
2018-03-22T16:59:55.054Z,43.70
2018-03-22T17:02:23.915Z,37.40
2018-03-22T17:04:51.928Z,31.40
2018-03-22T17:07:19.866Z,15.20
2018-03-22T17:09:47.801Z,13.10
2018-03-22T17:12:15.809Z,16.70
2018-03-22T17:14:43.740Z,16.60
2018-03-22T17:17:11.918Z,15.23
2018-03-22T17:19:42.381Z,14.77
2018-03-22T17:22:10.431Z,15.00
2018-03-22T17:24:38.420Z,14.47
2018-03-22T17:27:06.594Z,47.37
2018-03-22T17:29:34.526Z,17.30
2018-03-22T17:32:02.670Z,17.63
2018-03-22T17:34:30.611Z,14.57
2018-03-22T17:36:58.698Z,14.63
2018-03-22T17:39:27.052Z,13.90
2018-03-22T17:41:55.132Z,15.20
2018-03-22T17:44:23.251Z,15.33
2018-03-22T17:46:51.416Z,14.53
2018-03-22T17:49:19.424Z,15.83
2018-03-22T17:51:47.354Z,13.70
2018-03-22T17:54:15.343Z,14.03
2018-03-22T17:56:43.284Z,14.43
2018-03-22T17:59:11.333Z,14.27
2018-03-22T18:01:39.257Z,13.23
2018-03-22T18:04:07.279Z,15.13
2018-03-22T18:06:35.256Z,14.20
2018-03-22T18:09:03.190Z,12.67
2018-03-22T18:11:31.145Z,14.97
2018-03-22T18:13:59.142Z,14.87
2018-03-22T18:16:27.115Z,13.60
2018-03-22T18:18:55.045Z,16.37
2018-03-22T18:21:23.016Z,15.00
2018-03-22T18:23:51.003Z,15.40
2018-03-22T18:26:18.938Z,16.03
2018-03-22T18:28:46.886Z,16.27
2018-03-22T18:31:14.929Z,17.27
2018-03-22T18:33:42.906Z,15.50
2018-03-22T18:36:10.988Z,23.07
2018-03-22T18:38:38.980Z,17.73
2018-03-22T18:41:07.019Z,17.40
2018-03-22T18:43:35.087Z,51.43
2018-03-22T18:46:03.176Z,50.30
2018-03-22T18:48:31.374Z,57.27
2018-03-22T18:51:01.333Z,97.30
2018-03-22T18:53:29.471Z,81.67
2018-03-22T18:55:57.461Z,50.67
2018-03-22T18:58:25.449Z,66.73
2018-03-22T19:00:54.424Z,58.07
2018-03-22T19:03:23.257Z,30.70
2018-03-22T19:05:51.205Z,17.30
2018-03-22T19:08:19.305Z,30.87
2018-03-22T19:10:51.166Z,14.40
2018-03-22T19:13:19.335Z,13.57
2018-03-22T19:15:47.430Z,11.77
2018-03-22T19:18:15.638Z,11.90
2018-03-22T19:20:43.634Z,13.60
2018-03-22T19:23:11.762Z,13.70
2018-03-22T19:25:39.779Z,13.60
2018-03-22T19:28:07.844Z,12.13
2018-03-22T19:30:35.796Z,14.00
2018-03-22T19:33:03.803Z,14.33
2018-03-22T19:35:32.201Z,14.63
2018-03-22T19:38:00.293Z,11.93
2018-03-22T19:40:28.208Z,13.90
2018-03-22T19:42:56.209Z,13.80
2018-03-22T19:45:24.143Z,12.03
2018-03-22T19:47:52.182Z,13.23
2018-03-22T19:50:20.121Z,13.37
2018-03-22T19:52:49.761Z,14.70
2018-03-22T19:55:18.132Z,12.50
2018-03-22T19:57:46.307Z,13.90
2018-03-22T20:00:14.623Z,14.03
2018-03-22T20:02:43.055Z,13.10
2018-03-22T20:05:11.855Z,12.93
2018-03-22T20:07:40.882Z,13.47
2018-03-22T20:10:08.816Z,11.80
2018-03-22T20:12:38.834Z,25.10
2018-03-22T20:15:07.404Z,12.67
2018-03-22T20:17:35.475Z,13.33
2018-03-22T20:20:03.432Z,13.17
2018-03-22T20:22:31.411Z,13.20
2018-03-22T20:24:59.987Z,13.03
2018-03-22T20:27:27.924Z,14.43
2018-03-22T20:29:55.899Z,11.90
2018-03-22T20:32:23.850Z,18.13
2018-03-22T20:34:51.832Z,18.53
2018-03-22T20:37:19.760Z,35.00
2018-03-22T20:39:48.083Z,35.50
2018-03-22T20:42:16.033Z,32.13
2018-03-22T20:44:44.062Z,18.90
2018-03-22T20:47:12.003Z,14.33
2018-03-22T20:49:39.991Z,11.90
2018-03-22T20:52:07.930Z,12.20
2018-03-22T20:54:35.931Z,11.37
2018-03-22T20:57:04.164Z,12.37
2018-03-22T20:59:32.120Z,11.10
2018-03-22T21:02:00.221Z,24.07
2018-03-22T21:04:28.222Z,33.97
2018-03-22T21:06:56.172Z,40.77
2018-03-22T21:09:24.161Z,58.17
2018-03-22T21:11:52.112Z,36.70
2018-03-22T21:14:20.105Z,26.63
2018-03-22T21:16:48.070Z,16.97
2018-03-22T21:19:16.017Z,13.20
2018-03-22T21:21:43.955Z,12.43
2018-03-22T21:24:11.901Z,12.37
2018-03-22T21:26:39.867Z,11.33
2018-03-22T21:29:07.815Z,48.33
2018-03-22T21:31:35.780Z,22.07
2018-03-22T21:34:03.714Z,16.67
2018-03-22T21:36:31.628Z,11.80
2018-03-22T21:39:00.152Z,12.67
2018-03-22T21:41:28.061Z,12.67
2018-03-22T21:44:08.313Z,13.10
2018-03-22T21:46:36.268Z,12.70
2018-03-22T21:49:04.199Z,13.70
2018-03-22T21:51:32.482Z,13.60
2018-03-22T21:54:00.434Z,14.93
2018-03-22T21:56:28.369Z,15.40
2018-03-22T21:58:56.724Z,17.70
2018-03-22T22:01:29.062Z,14.00
2018-03-22T22:03:57.142Z,14.33
2018-03-22T22:06:25.979Z,14.50
2018-03-22T22:08:53.934Z,14.80
2018-03-22T22:11:22.847Z,14.20
2018-03-22T22:13:51.210Z,15.17
2018-03-22T22:16:19.234Z,15.10
2018-03-22T22:18:47.179Z,15.03
2018-03-22T22:21:15.171Z,16.17
2018-03-22T22:23:43.457Z,16.87
2018-03-22T22:26:11.482Z,16.00
2018-03-22T22:28:39.446Z,15.87
2018-03-22T22:31:07.449Z,16.23
2018-03-22T22:33:35.385Z,16.87
2018-03-22T22:36:03.337Z,15.90
2018-03-22T22:38:31.315Z,17.50
2018-03-22T22:40:59.254Z,18.10
2018-03-22T22:43:27.178Z,17.17
2018-03-22T22:45:55.106Z,18.53
2018-03-22T22:48:23.042Z,19.70
2018-03-22T22:50:51.048Z,17.40
2018-03-22T22:53:18.967Z,17.70
2018-03-22T22:55:46.936Z,16.70
2018-03-22T22:58:14.861Z,16.70
2018-03-22T23:00:42.863Z,17.07
2018-03-22T23:03:10.789Z,20.50
2018-03-22T23:05:38.723Z,20.87
2018-03-22T23:08:06.645Z,16.97
2018-03-22T23:10:34.741Z,16.50
2018-03-22T23:13:03.051Z,18.00
2018-03-22T23:15:31.094Z,17.83
2018-03-22T23:17:59.046Z,21.23
2018-03-22T23:20:26.986Z,19.70
2018-03-22T23:22:54.961Z,19.93
2018-03-22T23:25:22.909Z,19.07
2018-03-22T23:27:51.334Z,19.03
2018-03-22T23:30:19.259Z,16.70
2018-03-22T23:32:47.212Z,19.73
2018-03-22T23:35:15.157Z,18.50
2018-03-22T23:37:43.146Z,21.07
2018-03-22T23:40:11.085Z,18.17
2018-03-22T23:42:39.087Z,20.90
2018-03-22T23:45:07.087Z,19.93
2018-03-22T23:47:36.665Z,19.27
2018-03-22T23:50:04.593Z,19.50
2018-03-22T23:52:32.532Z,19.40
2018-03-22T23:55:00.502Z,21.33
2018-03-22T23:57:28.421Z,19.57
2018-03-22T23:59:56.386Z,17.60
